Iliamna Airport
PAIL : rendu visible

Aérodrome :











RETROUVEZ-NOUS SUR...

 
LOGIN :

S'inscrire | Disclaimer

   EN    FR    IT 

 









Légende :    VFR   VFR Marginal   IFR   IFR Intensif   IFR Très Intensif
Visi : 
Plafond : 
>= 8 km
>= 3000ft
5 à 8 km
1000 à 3000 ft
1500m à 5 km
500 à 1000 ft
800 à 1500m
200 à 500 ft
< 800m
< 200 ft
Symboles :   Orages  Brouillard  Fortes neiges  Fortes précipitations  Vent > 20 kt






- Altitude de l'aérodrome : 192 ft
- Code IATA : ILI


PAIL - Iliamna

DERNIER METAR :
  • 271053Z AUTO 10SM CLR M15/M19 A2963 RMK SLP040 T11501194 TSNO $ VIA AUTODIAL

METARs EXPIRÉS :
  • 270953Z AUTO 10SM CLR M14/M19 A2962 RMK SLP037 T11441189 TSNO $ VIA AUTODIAL
  • 270853Z AUTO 10SM CLR M13/M18 A2961 RMK SLP034 T11331183 410501139 53010 TSNO $ VIA AUTODIAL

TAF PAIL
Valide du 27 à 06h jusqu'au 28 à 06h UTC


270522Z 2706/2806 34007KT P6SM SCT100



MET'MAP, la Météo Aéronautique d'un coup d'oeil ! - Copyright ORBIFLY Décembre 2007 - Disclaimer

ORBIFLY MET'MAP TEAM :

Programmation & Développement : Alexandra Zaïnal
Sur une idée originale de : Baudouin d'Aumeries
Assistance à la programmation : Marc-Olivier Méhu
Soutien technique & logistique : Manuel Goepfert

Contact : metmap@orbifly.com




SOURCES & CREDITS :

   NOAA       Earth
Advisory